Latest Weather Observations for Burketown Airport

IDQ60801

Issued at 6:02 pm EST Thursday 30 July 2015 (issued every 30 minutes, with the page automatically refreshed every 10 minutes)

About weather observations | Map of weather stations | Latest weather observations for QLD | Other Formats
Station Details ID: 029077 Name: BURKETOWN AIRPORT Lat: -17.75 Lon: 139.54 Height: 5.7 m
Data from the previous 72 hours. | See also: Recent months at Burketown Airport
Date/Time
EST
Temp
°C
App
Temp
°C
Dew
Point
Rel
Hum
%
Delta-T
°C
Wind Press
QNH
hPa
Press
MSL
hPa
Rain
since 9 am
mm
Dir
 
Spd
km/h
Gust
km/h
Spd
kts
Gust
kts
30/06:00pm 27.9 25.9 12.7 39 8.9 N 15 20 8 11 1016.6 1016.5 0.0
30/05:30pm 28.8 26.8 12.7 37 9.4 N 15 19 8 10 1016.5 - 0.0
30/05:00pm 29.5 27.6 12.9 36 9.8 N 15 20 8 11 1016.4 - 0.0
30/04:30pm 29.5 27.9 12.9 36 9.8 NNW 13 17 7 9 1016.5 - 0.0
30/04:00pm 29.6 28.4 12.9 35 9.9 N 11 20 6 11 1016.5 - 0.0
30/03:30pm 29.0 27.8 12.8 36 9.5 NE 11 17 6 9 1016.8 - 0.0
30/03:00pm 29.3 28.2 13.1 37 9.6 N 11 20 6 11 1017.2 1017.1 0.0
30/02:30pm 29.1 27.9 12.9 37 9.6 N 11 20 6 11 1017.6 - 0.0
30/02:00pm 29.2 27.3 13.0 37 9.6 NE 15 20 8 11 1018.0 - 0.0
30/01:30pm 29.4 27.7 13.6 38 9.4 NNE 15 20 8 11 1018.4 - 0.0
30/01:00pm 28.9 27.1 13.2 38 9.3 ENE 15 22 8 12 1019.0 - 0.0
30/12:30pm 28.9 27.3 13.9 39 9.0 NE 15 28 8 15 1019.6 - 0.0
30/12:00pm 28.3 26.5 13.4 40 8.8 ENE 15 22 8 12 1020.0 1019.9 0.0
30/11:30am 27.5 24.9 13.1 41 8.5 ENE 19 30 10 16 1020.4 - 0.0
30/11:00am 26.9 24.0 12.9 42 8.2 E 20 30 11 16 1020.6 - 0.0
30/10:30am 25.8 21.2 12.3 43 7.8 ENE 28 35 15 19 1020.7 - 0.0
30/10:00am 24.8 20.6 8.3 35 8.8 E 20 30 11 16 1020.8 - 0.0
30/09:30am 22.7 18.0 5.2 32 8.7 ESE 19 28 10 15 1020.6 - 0.0
30/09:00am 21.4 16.3 3.1 30 8.7 SE 19 22 10 12 1020.4 1020.3 0.0
30/08:30am 19.5 14.1 1.5 30 8.2 SSE 19 24 10 13 1020.2 - 0.0
30/08:00am 17.6 12.5 0.7 32 7.4 SSE 17 22 9 12 1020.1 - 0.0
30/07:30am 16.6 11.9 0.7 34 6.9 S 15 19 8 10 1019.8 - 0.0
30/07:00am 16.3 11.6 0.8 35 6.7 S 15 17 8 9 1019.5 - 0.0
30/06:30am 16.6 12.3 1.1 35 6.8 SSE 13 17 7 9 1019.0 - 0.0
30/06:00am 17.1 12.0 0.7 33 7.1 S 17 19 9 10 1018.9 1018.8 0.0
30/05:30am 17.4 12.3 1.0 33 7.2 S 17 20 9 11 1018.6 - 0.0
30/05:00am 18.0 13.3 1.1 32 7.5 S 15 19 8 10 1018.6 - 0.0
30/04:30am 18.6 13.6 1.6 32 7.7 S 17 20 9 11 1018.4 - 0.0
30/04:00am 19.2 13.9 1.7 31 7.9 S 19 20 10 11 1018.2 - 0.0
30/03:30am 19.4 14.0 2.3 32 7.9 S 20 24 11 13 1018.0 - 0.0
30/03:00am 19.5 14.4 2.8 33 7.7 S 19 24 10 13 1018.3 1018.2 0.0
30/02:30am 20.1 14.9 3.3 33 7.9 SSE 20 26 11 14 1018.6 - 0.0
30/02:00am 20.7 15.5 3.4 32 8.2 SSE 20 26 11 14 1018.6 - 0.0
30/01:30am 21.2 16.1 3.9 32 8.3 SSE 20 28 11 15 1018.8 - 0.0
30/01:00am 21.7 16.6 4.3 32 8.5 S 20 28 11 15 1018.9 - 0.0
30/12:30am 21.8 16.9 5.3 34 8.2 S 20 28 11 15 1019.1 - 0.0
30/12:00am 22.1 17.3 5.5 34 8.3 S 20 26 11 14 1019.2 1019.1 0.0
 
Date/Time
EST
Temp
°C
App
Temp
°C
Dew
Point
Rel
Hum
%
Delta-T
°C
Wind Press
QNH
hPa
Press
MSL
hPa
Rain
since 9 am
mm
Dir
 
Spd
km/h
Gust
km/h
Spd
kts
Gust
kts
29/11:30pm 22.7 18.3 6.5 35 8.3 S 19 22 10 12 1019.3 - 0.0
29/11:00pm 22.9 18.5 6.6 35 8.4 S 19 22 10 12 1019.4 - 0.0
29/10:30pm 22.7 18.8 7.3 37 8.0 S 17 20 9 11 1019.3 - 0.0
29/10:00pm 23.0 19.2 7.5 37 8.1 S 17 19 9 10 1019.4 - 0.0
29/09:30pm 23.2 19.8 7.7 37 8.1 S 15 17 8 9 1019.4 - 0.0
29/09:00pm 23.4 20.1 7.9 37 8.1 S 15 17 8 9 1019.2 1019.1 0.0
29/08:30pm 23.6 20.5 7.3 35 8.5 S 13 15 7 8 1019.0 - 0.0
29/08:00pm 25.4 22.1 8.0 33 9.3 SSE 15 19 8 10 1018.7 - 0.0
29/07:30pm 26.6 23.1 8.6 32 9.8 SSE 17 20 9 11 1018.3 - 0.0
29/07:00pm 27.4 23.9 8.8 31 10.2 S 17 22 9 12 1018.0 - 0.0
29/06:30pm 28.5 24.4 8.7 29 10.9 SSE 20 28 11 15 1017.8 - 0.0
29/06:00pm 29.4 25.0 9.0 28 11.3 SSE 22 28 12 15 1017.7 1017.6 0.0
29/05:30pm 29.9 25.1 8.9 27 11.7 SSE 24 33 13 18 1017.6 - 0.0
29/05:00pm 30.3 26.2 8.7 26 12.0 SSE 20 28 11 15 1017.4 - 0.0
29/04:30pm 30.6 27.1 8.9 26 12.1 SSE 17 35 9 19 1017.3 - 0.0
29/04:00pm 30.8 27.4 9.1 26 12.1 S 17 24 9 13 1017.3 - 0.0
29/03:30pm 30.6 27.0 10.0 28 11.7 S 19 30 10 16 1017.6 - 0.0
29/03:00pm 30.6 26.7 9.5 27 11.8 SE 20 26 11 14 1017.9 1017.8 0.0
29/02:30pm 30.1 27.2 9.6 28 11.5 SE 15 24 8 13 1018.3 - 0.0
29/02:00pm 29.5 26.1 9.1 28 11.3 SE 17 26 9 14 1018.8 - 0.0
29/01:30pm 29.8 25.9 8.8 27 11.6 SSE 19 35 10 19 1019.2 - 0.0
29/01:00pm 29.1 25.2 8.7 28 11.2 SE 19 30 10 16 1019.9 - 0.0
29/12:30pm 27.8 22.7 7.6 28 10.8 SE 24 33 13 18 1020.6 - 0.0
29/12:00pm 27.3 22.5 7.2 28 10.7 SSE 22 35 12 19 1021.0 1020.9 0.0
29/11:30am 26.8 21.5 6.8 28 10.5 SE 24 35 13 19 1021.4 - 0.0
29/11:00am 25.4 19.4 5.1 27 10.3 SSE 26 35 14 19 1021.7 - 0.0
29/10:30am 24.6 18.2 3.3 25 10.4 SSE 26 33 14 18 1021.9 - 0.0
29/10:00am 24.0 17.0 2.2 24 10.4 SSE 28 37 15 20 1022.0 - 0.0
29/09:30am 22.8 15.7 1.2 24 10.0 SE 28 37 15 20 1021.7 - 0.0
29/09:00am 21.6 14.3 0.2 24 9.6 SSE 28 33 15 18 1021.5 1021.4 0.0
29/08:30am 20.1 12.6 -1.1 24 9.2 SSE 28 39 15 21 1021.4 - 0.0
29/08:00am 19.8 13.5 -1.3 24 9.1 SSE 22 30 12 16 1021.0 - 0.0
29/07:30am 18.8 13.1 -1.1 26 8.5 SSE 19 24 10 13 1020.6 - 0.0
29/07:00am 18.9 13.0 -0.5 27 8.4 SSE 20 26 11 14 1020.2 - 0.0
29/06:30am 19.5 13.3 -0.5 26 8.7 SSE 22 28 12 15 1019.9 - 0.0
29/06:00am 20.0 13.8 -0.6 25 9.0 SSE 22 28 12 15 1019.8 1019.7 0.0
29/05:30am 20.2 14.1 0.1 26 8.9 SSE 22 30 12 16 1019.7 - 0.0
29/05:00am 20.6 13.7 0.4 26 9.0 SSE 26 33 14 18 1019.5 - 0.0
29/04:30am 21.0 14.2 0.8 26 9.1 SSE 26 33 14 18 1019.3 - 0.0
29/04:00am 21.1 14.5 1.9 28 8.9 SSE 26 33 14 18 1019.3 - 0.0
29/03:30am 21.3 14.8 2.6 29 8.8 SSE 26 33 14 18 1019.4 - 0.0
29/03:00am 21.4 15.1 3.6 31 8.5 S 26 35 14 19 1019.5 1019.4 0.0
29/02:30am 21.6 15.8 4.2 32 8.4 SSE 24 32 13 17 1019.6 - 0.0
29/02:00am 21.7 16.1 5.2 34 8.2 S 24 32 13 17 1019.9 - 0.0
29/01:30am 22.2 16.6 5.6 34 8.3 S 24 32 13 17 1019.9 - 0.0
29/01:00am 22.3 16.8 5.7 34 8.3 SSE 24 32 13 17 1020.0 - 0.0
29/12:30am 22.5 17.0 5.9 34 8.4 S 24 30 13 16 1020.0 - 0.0
29/12:00am 22.9 17.5 6.2 34 8.5 S 24 32 13 17 1020.2 1020.1 0.0
 
Date/Time
EST
Temp
°C
App
Temp
°C
Dew
Point
Rel
Hum
%
Delta-T
°C
Wind Press
QNH
hPa
Press
MSL
hPa
Rain
since 9 am
mm
Dir
 
Spd
km/h
Gust
km/h
Spd
kts
Gust
kts
28/11:30pm 23.2 18.1 6.0 33 8.7 S 22 28 12 15 1020.4 - 0.0
28/11:00pm 23.3 18.5 5.7 32 8.9 S 20 28 11 15 1020.6 - 0.0
28/10:30pm 23.6 18.4 5.5 31 9.1 S 22 30 12 16 1020.6 - 0.0
28/10:00pm 23.8 19.0 5.7 31 9.2 S 20 26 11 14 1020.8 - 0.0
28/09:30pm 24.3 19.1 5.6 30 9.5 S 22 28 12 15 1020.8 - 0.0
28/09:00pm 24.8 19.7 6.1 30 9.6 S 22 30 12 16 1020.8 1020.7 0.0
28/08:30pm 24.4 20.4 6.6 32 9.2 S 17 20 9 11 1020.6 - 0.0
28/08:00pm 24.7 20.6 6.4 31 9.4 S 17 20 9 11 1020.1 - 0.0
28/07:30pm 25.5 21.1 6.7 30 9.8 S 19 24 10 13 1019.7 - 0.0
28/07:00pm 26.3 22.0 6.9 29 10.2 S 19 24 10 13 1019.5 - 0.0
28/06:30pm 27.3 22.5 7.2 28 10.7 S 22 30 12 16 1019.1 - 0.0
28/06:00pm 28.3 23.0 7.0 26 11.3 S 24 33 13 18 1018.9 1018.8 0.0
28/05:30pm 28.9 23.2 6.9 25 11.7 SSE 26 33 14 18 1018.7 - 0.0
28/05:06pm 29.4 23.3 6.7 24 12.1 SSE 28 46 15 25 1018.5 - 0.0
28/05:00pm 29.3 23.6 6.7 24 12.0 SSE 26 33 14 18 1018.5 - 0.0
28/04:30pm 29.4 23.7 6.7 24 12.1 SSE 26 35 14 19 1018.4 - 0.0
28/04:00pm 29.8 24.1 6.5 23 12.4 S 26 37 14 20 1018.3 - 0.0
28/03:30pm 29.7 23.9 6.4 23 12.4 S 26 37 14 20 1018.4 - 0.0
28/03:00pm 29.9 24.9 6.5 23 12.4 SSE 22 33 12 18 1018.6 1018.5 0.0
28/02:30pm 29.2 24.0 7.2 25 11.8 SSE 24 35 13 19 1019.0 - 0.0
28/02:00pm 28.6 22.6 5.5 23 12.0 SSE 26 35 14 19 1019.2 - 0.0
28/01:30pm 28.9 22.7 4.4 21 12.5 SSE 26 39 14 21 1019.8 - 0.0
28/01:00pm 28.5 22.3 4.1 21 12.4 SSE 26 39 14 21 1020.3 - 0.0
28/12:30pm 27.6 20.6 4.0 22 11.9 SE 30 43 16 23 1020.7 - 0.0
28/12:10pm 26.9 19.2 3.4 22 11.7 SSE 33 52 18 28 1021.0 - 0.0
28/12:00pm 26.7 19.5 3.2 22 11.6 SE 30 39 16 21 1021.2 1021.1 0.0
28/11:30am 26.6 19.1 3.2 22 11.5 SE 32 41 17 22 1021.6 - 0.0
28/11:00am 25.6 17.7 2.3 22 11.2 SSE 33 46 18 25 1021.9 - 0.0
28/10:30am 24.6 16.0 2.7 24 10.6 SSE 37 48 20 26 1022.1 - 0.0
28/10:00am 23.8 14.8 2.6 25 10.1 SSE 39 56 21 30 1022.3 - 0.0
28/09:51am 23.3 14.6 2.2 25 10.0 SSE 37 56 20 30 1022.3 - 0.0
28/09:30am 22.6 13.2 2.1 26 9.6 SSE 41 50 22 27 1022.3 - 0.0
28/09:00am 22.3 14.0 2.4 27 9.3 SSE 35 50 19 27 1022.2 1022.1 0.0
28/08:30am 21.2 13.3 2.0 28 8.9 SSE 33 48 18 26 1022.1 - 0.0
28/08:00am 20.5 13.1 1.9 29 8.6 SSE 30 37 16 20 1021.9 - 0.0
28/07:30am 19.9 12.9 1.8 30 8.3 SSE 28 35 15 19 1021.8 - 0.0
28/07:00am 19.9 12.9 1.8 30 8.3 S 28 37 15 20 1021.4 - 0.0
28/06:30am 20.1 13.0 1.5 29 8.5 SSE 28 37 15 20 1021.1 - 0.0
28/06:00am 20.3 13.2 1.2 28 8.6 SSE 28 35 15 19 1020.8 1020.7 0.0
28/05:30am 20.3 13.6 1.2 28 8.7 S 26 35 14 19 1020.6 - 0.0
28/05:00am 20.5 13.4 1.4 28 8.7 S 28 37 15 20 1020.4 - 0.0
28/04:30am 20.5 13.0 0.9 27 8.8 SSE 30 37 16 20 1020.5 - 0.0
28/04:00am 20.7 13.2 1.1 27 8.9 S 30 39 16 21 1020.2 - 0.0
28/03:30am 21.1 13.0 0.9 26 9.2 SSE 33 46 18 25 1020.3 - 0.0
28/03:00am 21.1 13.8 0.3 25 9.3 S 28 37 15 20 1020.5 1020.4 0.0
28/02:30am 21.6 13.6 0.2 24 9.6 S 32 43 17 23 1020.5 - 0.0
28/02:00am 21.9 13.6 -0.1 23 9.8 SSE 33 43 18 23 1020.7 - 0.0
28/01:30am 22.3 14.4 0.8 24 9.8 SSE 32 43 17 23 1021.0 - 0.0
28/01:00am 22.6 14.5 1.0 24 9.9 SSE 33 43 18 23 1021.1 - 0.0
28/12:30am 22.9 14.8 1.3 24 10.0 SSE 33 44 18 24 1021.2 - 0.0
28/12:00am 23.1 15.7 2.0 25 9.9 SSE 30 39 16 21 1021.2 1021.1 0.0
 
Date/Time
EST
Temp
°C
App
Temp
°C
Dew
Point
Rel
Hum
%
Delta-T
°C
Wind Press
QNH
hPa
Press
MSL
hPa
Rain
since 9 am
mm
Dir
 
Spd
km/h
Gust
km/h
Spd
kts
Gust
kts
27/11:30pm 23.2 15.8 2.1 25 10.0 S 30 39 16 21 1021.2 - 0.0
27/11:00pm 24.1 16.2 2.3 24 10.4 S 33 46 18 25 1021.1 - 0.0
27/10:30pm 24.5 17.2 2.6 24 10.5 S 30 44 16 24 1021.0 - 0.0
27/10:17pm 24.9 17.2 2.4 23 10.8 SSE 32 50 17 27 1021.0 - 0.0
27/10:00pm 25.1 17.4 2.5 23 10.9 SSE 32 41 17 22 1021.0 - 0.0
27/09:30pm 25.3 18.5 3.3 24 10.8 SSE 28 39 15 21 1021.0 - 0.0
27/09:00pm 25.5 19.2 3.5 24 10.8 S 26 35 14 19 1021.0 1020.9 0.0
27/08:30pm 25.8 19.1 3.7 24 10.9 S 28 35 15 19 1020.8 - 0.0
27/08:00pm 25.8 19.9 3.7 24 10.9 S 24 33 13 18 1020.5 - 0.0
27/07:30pm 26.4 19.7 3.6 23 11.3 S 28 37 15 20 1020.2 - 0.0
27/07:00pm 27.0 18.9 3.5 22 11.7 S 35 46 19 25 1019.8 - 0.0
27/06:30pm 27.9 20.4 3.6 21 12.2 S 32 43 17 23 1019.3 - 0.0

Other Formats:

Comma delimited format used in spreadsheet applications
http://www.bom.gov.au/fwo/IDQ60801/IDQ60801.94260.axf

JavaScript Object Notation format (JSON) in row-major order
http://www.bom.gov.au/fwo/IDQ60801/IDQ60801.94260.json